Terminal Aerodrome Forecast
Issued by NWS Charleston, WV

Current Version | Previous Version | Text Only | Print | Product List | Glossary Off
Versions: 1 2 3 4 5 6 7 8 9 10 11 12 13 14 15 16 17 18 19 20 21 22 23 24 25 26 27

000
FTUS41 KRLX 301100
TAFCRW
TAF
KCRW 301125Z 3012/3112 00000KT P6SM FEW002 BKN080 BKN090
     FM301500 21007KT P6SM SCT050
     FM310000 VRB03KT P6SM SCT050
     FM310200 21004KT P6SM BKN070
     FM310900 23005KT 5SM SHRA BR OVC045=

USA.gov is the U.S. government's official web portal to all federal, state and local government web resources and services.